Time;durP1;ratioP1;P1;durP2;ratioP2;P2;SDS_P1;SDS_P2;PMS_P1;PMS_P2;Temp;Humidity;BMP_temperature;BMP_pressure;BME280_temperature;BME280_humidity;BME280_pressure;Samples;Min_cycle;Max_cycle;Signal;HPM_P1;HPM_P2
2022/08/11 00:00:18;;;;;;;4.67;3.30;;;;;;;;;;4971337;28;20035;-75
2022/08/11 00:02:49;;;;;;;7.15;3.78;;;;;;;;;;4961794;28;20247;-76
2022/08/11 00:05:23;;;;;;;5.35;3.63;;;;;;;;;;4958153;28;20031;-77
2022/08/11 00:07:54;;;;;;;7.18;4.07;;;;;;;;;;4960819;28;20042;-74
2022/08/11 00:10:22;;;;;;;7.32;3.63;;;;;;;;;;4973317;28;20038;-75
2022/08/11 00:13:09;;;;;;;6.88;4.55;;;;;;;;;;4987670;28;20027;-76
2022/08/11 00:15:42;;;;;;;4.28;3.42;;;;;;;;;;4980423;28;20428;-77
2022/08/11 00:18:09;;;;;;;10.32;3.85;;;;;;;;;;4970562;28;20084;-75
2022/08/11 00:20:38;;;;;;;5.90;4.03;;;;;;;;;;4958675;28;20026;-75
2022/08/11 00:23:13;;;;;;;8.52;4.13;;;;;;;;;;4959359;28;20019;-74
2022/08/11 00:25:41;;;;;;;12.65;6.32;;;;;;;;;;4964710;28;20081;-78
2022/08/11 00:28:27;;;;;;;8.18;4.45;;;;;;;;;;4965223;28;20034;-75
2022/08/11 00:30:54;;;;;;;6.13;4.15;;;;;;;;;;4962454;28;20418;-75
2022/08/11 00:33:23;;;;;;;7.35;4.75;;;;;;;;;;4960316;28;20023;-76
2022/08/11 00:35:50;;;;;;;5.82;4.22;;;;;;;;;;4962578;28;20031;-77
2022/08/11 00:38:17;;;;;;;6.03;4.10;;;;;;;;;;4959834;28;20035;-76
2022/08/11 00:40:59;;;;;;;9.30;5.38;;;;;;;;;;4962485;28;20034;-77
2022/08/11 00:43:47;;;;;;;7.95;4.10;;;;;;;;;;4953278;28;20038;-78
2022/08/11 00:46:32;;;;;;;6.72;4.38;;;;;;;;;;4963066;28;20072;-76
2022/08/11 00:49:08;;;;;;;9.15;4.53;;;;;;;;;;4963440;28;20322;-76
2022/08/11 00:51:55;;;;;;;9.00;4.30;;;;;;;;;;4964050;28;20034;-77
2022/08/11 00:54:50;;;;;;;8.23;4.45;;;;;;;;;;4965583;28;20031;-76
2022/08/11 00:58:04;;;;;;;5.13;3.95;;;;;;;;;;4958001;28;20031;-77
2022/08/11 01:00:57;;;;;;;9.55;4.43;;;;;;;;;;4935127;28;20055;-77
2022/08/11 01:03:45;;;;;;;5.80;3.90;;;;;;;;;;4958812;28;20555;-77
2022/08/11 01:06:21;;;;;;;8.07;4.15;;;;;;;;;;4963704;28;20034;-77
2022/08/11 01:09:16;;;;;;;9.18;4.85;;;;;;;;;;4980032;28;20041;-76
2022/08/11 01:11:52;;;;;;;8.43;4.45;;;;;;;;;;4963285;28;20084;-76
2022/08/11 01:14:55;;;;;;;6.30;4.40;;;;;;;;;;4957771;28;20030;-75
2022/08/11 01:17:54;;;;;;;7.13;4.60;;;;;;;;;;4961281;28;20669;-76
2022/08/11 01:20:41;;;;;;;5.82;4.68;;;;;;;;;;4958213;28;20082;-76
2022/08/11 01:23:25;;;;;;;8.40;4.15;;;;;;;;;;4959643;28;20070;-76
2022/08/11 01:26:27;;;;;;;10.40;5.00;;;;;;;;;;4959552;28;20480;-76
2022/08/11 01:29:49;;;;;;;11.52;4.50;;;;;;;;;;4958177;28;20110;-76
2022/08/11 01:32:51;;;;;;;8.73;5.00;;;;;;;;;;4930246;29;20031;-76
2022/08/11 01:35:32;;;;;;;8.93;4.72;;;;;;;;;;4928559;29;20027;-76
2022/08/11 01:38:16;;;;;;;7.95;4.68;;;;;;;;;;4947011;28;20568;-74
2022/08/11 01:40:58;;;;;;;10.02;5.88;;;;;;;;;;4961489;28;20535;-77
2022/08/11 01:46:48;;;;;;;6.45;4.30;;;;;;;;;;4961702;28;20041;-76
2022/08/11 01:49:43;;;;;;;9.10;4.50;;;;;;;;;;4957591;28;20062;-75
2022/08/11 01:52:11;;;;;;;10.60;6.05;;;;;;;;;;4958450;28;20045;-75
2022/08/11 01:55:04;;;;;;;7.03;4.65;;;;;;;;;;4960823;28;20109;-76
2022/08/11 01:57:55;;;;;;;7.85;4.57;;;;;;;;;;4965795;28;20458;-76
2022/08/11 02:00:27;;;;;;;8.85;4.78;;;;;;;;;;4976871;28;20085;-77
2022/08/11 02:03:14;;;;;;;6.68;4.45;;;;;;;;;;4974480;28;20130;-76
2022/08/11 02:06:53;;;;;;;16.35;5.70;;;;;;;;;;4957365;28;20512;-75
2022/08/11 02:09:05;;;;;;;9.93;5.05;;;;;;;;;;4951342;28;20467;-76
2022/08/11 02:11:35;;;;;;;7.35;4.28;;;;;;;;;;4952971;28;20023;-76
2022/08/11 02:14:19;;;;;;;7.10;4.53;;;;;;;;;;4961835;28;20027;-75
2022/08/11 02:17:15;;;;;;;8.13;4.35;;;;;;;;;;4960837;28;20511;-74
2022/08/11 02:25:46;;;;;;;8.55;4.57;;;;;;;;;;4957624;28;20146;-76
2022/08/11 02:28:28;;;;;;;6.90;4.30;;;;;;;;;;4962806;28;20109;-76
2022/08/11 02:34:04;;;;;;;6.35;4.43;;;;;;;;;;4957008;28;20413;-75
2022/08/11 02:36:51;;;;;;;9.82;4.78;;;;;;;;;;4972560;28;20110;-76
2022/08/11 02:39:19;;;;;;;5.53;4.03;;;;;;;;;;4962723;28;20051;-76
2022/08/11 02:42:22;;;;;;;9.25;4.68;;;;;;;;;;4955826;28;20039;-75
2022/08/11 02:45:38;;;;;;;9.40;5.22;;;;;;;;;;4941716;28;20058;-76
2022/08/11 02:51:39;;;;;;;7.45;4.88;;;;;;;;;;4958275;28;20077;-76
2022/08/11 02:54:10;;;;;;;6.70;4.90;;;;;;;;;;4958073;28;20089;-75
2022/08/11 02:57:03;;;;;;;9.73;4.63;;;;;;;;;;4960159;28;20050;-75
2022/08/11 02:59:52;;;;;;;6.60;4.40;;;;;;;;;;4971878;28;20026;-76
2022/08/11 03:02:58;;;;;;;13.52;4.80;;;;;;;;;;4961490;28;20599;-75
2022/08/11 03:05:37;;;;;;;10.93;5.03;;;;;;;;;;4965287;28;20064;-73
2022/08/11 03:08:17;;;;;;;14.30;5.43;;;;;;;;;;4947961;28;20471;-75
2022/08/11 03:17:15;;;;;;;25.33;6.78;;;;;;;;;;4950293;29;20138;-76
2022/08/11 03:20:10;;;;;;;19.05;6.40;;;;;;;;;;4949326;28;20463;-76
2022/08/11 03:23:00;;;;;;;15.25;6.15;;;;;;;;;;4948825;28;20031;-76
2022/08/11 03:25:33;;;;;;;17.80;4.97;;;;;;;;;;4949261;29;20035;-76
2022/08/11 03:28:20;;;;;;;13.85;5.95;;;;;;;;;;4949107;29;20031;-75
2022/08/11 03:30:56;;;;;;;15.38;4.97;;;;;;;;;;4948990;29;20055;-75
2022/08/11 03:36:46;;;;;;;9.32;5.55;;;;;;;;;;4950657;29;20180;-75
2022/08/11 03:39:33;;;;;;;8.65;5.40;;;;;;;;;;4937212;29;20043;-74
2022/08/11 03:42:26;;;;;;;9.98;5.07;;;;;;;;;;4949284;29;20331;-76
2022/08/11 03:45:25;;;;;;;10.80;5.60;;;;;;;;;;4951149;28;20023;-74
2022/08/11 03:48:07;;;;;;;12.45;4.65;;;;;;;;;;4952540;29;20034;-76
2022/08/11 03:50:57;;;;;;;9.10;5.55;;;;;;;;;;4952417;29;20514;-76
2022/08/11 03:53:41;;;;;;;8.23;5.13;;;;;;;;;;4954539;28;20023;-76
2022/08/11 03:56:10;;;;;;;9.48;5.65;;;;;;;;;;4954314;28;20031;-76
2022/08/11 03:58:39;;;;;;;10.32;5.95;;;;;;;;;;4951942;29;20487;-75
2022/08/11 04:01:28;;;;;;;9.10;5.45;;;;;;;;;;4954113;28;20053;-76
2022/08/11 04:04:25;;;;;;;6.90;4.88;;;;;;;;;;4952302;29;20131;-76
2022/08/11 04:07:28;;;;;;;11.40;5.93;;;;;;;;;;4952292;29;20041;-76
2022/08/11 04:10:19;;;;;;;10.00;5.13;;;;;;;;;;4952019;29;20033;-77
2022/08/11 04:12:54;;;;;;;10.13;5.47;;;;;;;;;;4952287;28;20118;-75
2022/08/11 04:15:59;;;;;;;10.05;5.68;;;;;;;;;;4954043;28;20074;-77
2022/08/11 04:18:38;;;;;;;9.05;5.55;;;;;;;;;;4952446;29;20506;-76
2022/08/11 04:21:45;;;;;;;8.20;5.40;;;;;;;;;;4954918;28;20035;-76
2022/08/11 04:24:38;;;;;;;8.30;5.70;;;;;;;;;;4948755;29;20046;-76
2022/08/11 04:27:06;;;;;;;9.65;6.05;;;;;;;;;;4957131;28;20031;-76
2022/08/11 04:29:53;;;;;;;11.63;5.47;;;;;;;;;;4952667;29;20488;-76
2022/08/11 04:32:44;;;;;;;13.95;6.05;;;;;;;;;;4952216;29;20468;-77
2022/08/11 04:35:36;;;;;;;9.30;5.68;;;;;;;;;;4954520;28;20027;-76
2022/08/11 04:39:00;;;;;;;11.15;5.82;;;;;;;;;;4953344;28;20027;-77
2022/08/11 04:41:31;;;;;;;11.63;6.20;;;;;;;;;;4911854;29;20474;-76
2022/08/11 04:44:37;;;;;;;10.38;6.45;;;;;;;;;;4912226;29;20612;-77
2022/08/11 05:02:14;;;;;;;12.25;6.18;;;;;;;;;;4952950;29;20077;-74
2022/08/11 05:07:52;;;;;;;10.65;5.80;;;;;;;;;;4952981;29;20067;-74
2022/08/11 05:10:20;;;;;;;11.98;5.45;;;;;;;;;;4952850;28;20038;-76
2022/08/11 05:12:55;;;;;;;10.55;6.13;;;;;;;;;;4951251;29;20062;-76
2022/08/11 05:36:00;;;;;;;15.55;7.20;;;;;;;;;;4955567;28;20450;-76
2022/08/11 05:58:02;;;;;;;22.52;6.82;;;;;;;;;;4961963;28;20074;-74
2022/08/11 06:00:30;;;;;;;9.77;6.22;;;;;;;;;;4962547;28;20054;-74
2022/08/11 06:02:59;;;;;;;14.38;6.60;;;;;;;;;;4967529;28;20053;-71
2022/08/11 06:05:33;;;;;;;19.17;7.13;;;;;;;;;;4966150;28;20850;-74
2022/08/11 06:07:59;;;;;;;17.40;7.47;;;;;;;;;;4961994;28;20039;-76
2022/08/11 06:10:34;;;;;;;13.50;7.43;;;;;;;;;;4953583;28;20031;-74
2022/08/11 06:13:01;;;;;;;12.27;7.18;;;;;;;;;;4959495;28;20278;-73
2022/08/11 06:15:30;;;;;;;12.88;6.78;;;;;;;;;;4962446;28;20034;-75
2022/08/11 06:17:57;;;;;;;15.27;6.05;;;;;;;;;;4982329;28;20051;-74
2022/08/11 06:20:24;;;;;;;11.93;7.05;;;;;;;;;;4972688;28;20161;-73
2022/08/11 06:22:57;;;;;;;14.10;7.30;;;;;;;;;;4966135;28;20035;-73
2022/08/11 06:25:34;;;;;;;12.38;7.07;;;;;;;;;;4977216;28;20170;-73
2022/08/11 06:28:02;;;;;;;12.98;6.25;;;;;;;;;;4966024;28;20732;-75
2022/08/11 06:30:35;;;;;;;30.02;8.95;;;;;;;;;;4957406;28;20042;-72
2022/08/11 06:33:03;;;;;;;13.70;6.82;;;;;;;;;;4951532;28;20046;-73
2022/08/11 06:35:47;;;;;;;13.13;6.00;;;;;;;;;;4964043;28;20110;-75
2022/08/11 06:38:37;;;;;;;16.23;5.80;;;;;;;;;;4981955;28;20037;-75
2022/08/11 06:41:29;;;;;;;11.27;6.35;;;;;;;;;;4956108;28;20476;-76
2022/08/11 06:44:21;;;;;;;8.90;6.25;;;;;;;;;;4964192;28;20034;-75
2022/08/11 06:46:50;;;;;;;16.52;6.25;;;;;;;;;;4957748;28;20034;-74
2022/08/11 06:52:07;;;;;;;9.50;7.18;;;;;;;;;;4964445;28;20049;-75
2022/08/11 06:54:40;;;;;;;16.60;7.82;;;;;;;;;;4965551;28;20420;-73
2022/08/11 07:03:02;;;;;;;12.25;6.18;;;;;;;;;;4965875;28;20459;-72
2022/08/11 07:05:59;;;;;;;14.05;6.00;;;;;;;;;;4956113;28;20031;-74
2022/08/11 07:17:21;;;;;;;14.57;5.60;;;;;;;;;;4951657;28;20073;-74
2022/08/11 07:31:23;;;;;;;11.40;5.43;;;;;;;;;;4949339;28;20042;-75
2022/08/11 07:33:51;;;;;;;22.00;5.78;;;;;;;;;;4956617;28;20137;-76
2022/08/11 07:36:17;;;;;;;22.35;6.30;;;;;;;;;;4942597;28;20114;-73
2022/08/11 07:38:49;;;;;;;13.50;5.20;;;;;;;;;;4968193;28;20600;-76
2022/08/11 07:41:24;;;;;;;11.88;4.82;;;;;;;;;;4954057;28;20130;-76
2022/08/11 07:43:54;;;;;;;15.52;5.68;;;;;;;;;;4952160;28;20039;-75
2022/08/11 07:54:38;;;;;;;9.23;4.32;;;;;;;;;;4953536;28;20105;-74
2022/08/11 08:19:19;;;;;;;18.48;6.65;;;;;;;;;;4948086;28;20752;-75
2022/08/11 08:21:46;;;;;;;11.02;5.28;;;;;;;;;;4960370;28;20593;-75
2022/08/11 08:24:13;;;;;;;13.13;5.65;;;;;;;;;;4953197;28;20054;-75
2022/08/11 08:32:18;;;;;;;8.20;4.32;;;;;;;;;;4968777;28;20045;-77
2022/08/11 08:34:45;;;;;;;6.78;3.78;;;;;;;;;;4983458;28;20047;-75
2022/08/11 08:37:14;;;;;;;8.40;4.65;;;;;;;;;;4963532;28;20051;-73
2022/08/11 08:39:40;;;;;;;6.88;3.58;;;;;;;;;;4956158;28;20551;-77
2022/08/11 08:42:11;;;;;;;19.70;5.70;;;;;;;;;;4962354;28;20036;-76
2022/08/11 08:44:45;;;;;;;64.80;8.93;;;;;;;;;;4957495;28;20023;-76
2022/08/11 08:47:17;;;;;;;15.02;4.40;;;;;;;;;;4950314;28;20095;-75
2022/08/11 08:49:50;;;;;;;47.67;7.07;;;;;;;;;;4970268;28;20039;-76
2022/08/11 08:52:21;;;;;;;12.32;4.00;;;;;;;;;;4954353;28;20046;-75
2022/08/11 08:54:55;;;;;;;10.27;4.20;;;;;;;;;;4925411;28;20169;-77
2022/08/11 08:57:22;;;;;;;8.40;3.75;;;;;;;;;;4951674;28;20062;-79
2022/08/11 08:59:55;;;;;;;12.57;3.88;;;;;;;;;;4953371;28;20035;-75
2022/08/11 09:02:25;;;;;;;8.63;3.97;;;;;;;;;;4951440;28;20111;-76
2022/08/11 09:04:51;;;;;;;16.05;5.07;;;;;;;;;;4971794;28;20280;-74
2022/08/11 09:07:22;;;;;;;9.50;3.72;;;;;;;;;;4952269;28;20053;-77
2022/08/11 09:09:51;;;;;;;4.43;3.58;;;;;;;;;;4963776;28;20035;-76
2022/08/11 09:12:31;;;;;;;6.25;4.00;;;;;;;;;;4960387;28;20407;-76
2022/08/11 09:15:02;;;;;;;12.70;5.00;;;;;;;;;;4952592;28;20513;-77
2022/08/11 09:17:35;;;;;;;9.40;4.20;;;;;;;;;;4951609;28;20114;-75
2022/08/11 09:20:10;;;;;;;7.60;3.72;;;;;;;;;;4965877;28;20035;-74
2022/08/11 09:28:12;;;;;;;11.40;3.75;;;;;;;;;;4951476;28;20046;-75
2022/08/11 09:30:42;;;;;;;11.60;5.10;;;;;;;;;;4956858;28;20019;-76
2022/08/11 09:33:11;;;;;;;19.60;3.83;;;;;;;;;;4968366;28;20073;-77
2022/08/11 09:35:41;;;;;;;19.92;5.90;;;;;;;;;;4966856;28;20034;-76
2022/08/11 09:40:55;;;;;;;7.85;3.75;;;;;;;;;;4949842;28;20061;-75
2022/08/11 09:46:09;;;;;;;5.90;3.00;;;;;;;;;;4956699;28;20125;-75
2022/08/11 09:48:45;;;;;;;8.00;2.80;;;;;;;;;;4969824;28;20105;-77
2022/08/11 09:51:12;;;;;;;5.07;2.85;;;;;;;;;;4968103;28;20029;-76
2022/08/11 09:53:40;;;;;;;9.93;3.45;;;;;;;;;;4961776;28;20027;-75
2022/08/11 09:58:58;;;;;;;11.63;3.17;;;;;;;;;;4956165;28;20162;-74
2022/08/11 10:01:29;;;;;;;5.88;2.90;;;;;;;;;;4951861;28;20065;-75
2022/08/11 10:03:59;;;;;;;8.00;2.50;;;;;;;;;;4965463;28;20030;-74
2022/08/11 10:09:16;;;;;;;5.35;2.20;;;;;;;;;;4955626;28;20374;-74
2022/08/11 10:11:42;;;;;;;4.80;2.63;;;;;;;;;;4971753;28;20554;-75
2022/08/11 10:16:54;;;;;;;5.30;2.78;;;;;;;;;;4946739;28;20066;-77
2022/08/11 10:19:22;;;;;;;5.70;2.33;;;;;;;;;;4951950;28;20506;-76
2022/08/11 10:26:49;;;;;;;8.25;2.85;;;;;;;;;;4962750;28;20043;-75
2022/08/11 10:27:21;;;;;;;10.10;2.40;;;;;;;;;;4947558;28;20112;-75
2022/08/11 10:35:20;;;;;;;6.45;2.45;;;;;;;;;;4951124;28;20030;-76
2022/08/11 10:37:46;;;;;;;6.55;2.17;;;;;;;;;;4939894;28;20482;-76
2022/08/11 10:40:21;;;;;;;4.25;2.10;;;;;;;;;;4961038;28;20034;-74
2022/08/11 10:43:05;;;;;;;3.67;2.83;;;;;;;;;;4949813;28;20072;-75
2022/08/11 10:48:24;;;;;;;3.85;2.35;;;;;;;;;;4944886;28;20475;-74
2022/08/11 10:59:08;;;;;;;3.67;2.30;;;;;;;;;;4948732;28;20046;-74
2022/08/11 11:01:37;;;;;;;5.55;2.67;;;;;;;;;;4952022;28;20073;-78
2022/08/11 11:04:16;;;;;;;4.35;2.50;;;;;;;;;;4949961;28;20054;-75
2022/08/11 11:07:04;;;;;;;13.57;3.20;;;;;;;;;;4943941;28;20560;-75
2022/08/11 11:09:31;;;;;;;8.20;2.70;;;;;;;;;;4947630;28;20031;-75
2022/08/11 11:17:55;;;;;;;4.88;2.88;;;;;;;;;;4946673;28;20653;-74
2022/08/11 11:20:43;;;;;;;5.97;2.78;;;;;;;;;;4949446;28;20052;-74
2022/08/11 11:23:16;;;;;;;6.47;3.17;;;;;;;;;;4949956;28;20039;-75
2022/08/11 11:26:06;;;;;;;5.38;3.08;;;;;;;;;;4965650;28;20344;-73
2022/08/11 11:28:49;;;;;;;5.70;2.72;;;;;;;;;;4949938;28;20141;-75
2022/08/11 11:31:43;;;;;;;8.82;5.40;;;;;;;;;;4945990;28;20039;-75
2022/08/11 11:34:42;;;;;;;3.63;2.92;;;;;;;;;;4953165;28;20105;-75
2022/08/11 11:37:12;;;;;;;7.22;2.85;;;;;;;;;;4965434;28;20058;-75
2022/08/11 11:39:38;;;;;;;4.25;3.22;;;;;;;;;;4957044;28;20423;-75
2022/08/11 11:42:06;;;;;;;12.40;4.28;;;;;;;;;;4952798;28;20035;-74
2022/08/11 11:44:34;;;;;;;8.50;3.58;;;;;;;;;;4960737;28;20094;-75
2022/08/11 11:47:00;;;;;;;7.63;2.90;;;;;;;;;;4963166;28;20031;-76
2022/08/11 11:49:28;;;;;;;5.72;3.03;;;;;;;;;;4971203;28;20086;-74
2022/08/11 11:51:56;;;;;;;4.10;2.47;;;;;;;;;;4961537;28;20038;-75
2022/08/11 11:54:25;;;;;;;5.22;2.88;;;;;;;;;;4962026;28;20041;-76
2022/08/11 11:56:56;;;;;;;3.42;2.30;;;;;;;;;;4957180;28;20038;-73
2022/08/11 12:02:14;;;;;;;5.03;2.47;;;;;;;;;;4944358;28;20038;-75
2022/08/11 12:04:47;;;;;;;3.17;2.65;;;;;;;;;;4951169;28;20443;-76
2022/08/11 12:09:58;;;;;;;5.93;2.92;;;;;;;;;;4948562;28;20088;-76
2022/08/11 12:15:09;;;;;;;6.30;2.78;;;;;;;;;;4952751;28;20328;-75
2022/08/11 12:17:35;;;;;;;19.25;7.72;;;;;;;;;;4963800;28;20058;-76
2022/08/11 12:20:03;;;;;;;11.65;3.28;;;;;;;;;;4952984;28;20051;-75
2022/08/11 12:28:01;;;;;;;3.42;2.55;;;;;;;;;;4948369;28;20058;-76
2022/08/11 12:30:28;;;;;;;4.80;2.47;;;;;;;;;;4945880;28;20440;-75
2022/08/11 12:32:54;;;;;;;5.10;2.60;;;;;;;;;;4973118;28;20030;-74
2022/08/11 12:35:21;;;;;;;7.45;2.25;;;;;;;;;;4959943;28;20034;-76
2022/08/11 12:38:01;;;;;;;5.90;3.08;;;;;;;;;;4975226;28;20114;-77
2022/08/11 12:46:35;;;;;;;9.60;2.40;;;;;;;;;;4952853;28;20054;-74
2022/08/11 12:52:01;;;;;;;3.13;2.60;;;;;;;;;;4950722;28;20049;-75
2022/08/11 12:54:38;;;;;;;;;;;;;;;;;;4952077;28;20050;-74
2022/08/11 13:05:24;;;;;;;2.90;2.10;;;;;;;;;;4949426;28;20129;-76
2022/08/11 13:07:51;;;;;;;8.93;2.10;;;;;;;;;;4952073;28;20035;-77
2022/08/11 13:13:05;;;;;;;5.05;2.13;;;;;;;;;;4950898;28;20077;-75
2022/08/11 13:15:32;;;;;;;6.95;2.63;;;;;;;;;;4967154;28;20073;-78
2022/08/11 13:18:04;;;;;;;4.32;2.40;;;;;;;;;;4948648;28;20069;-76
2022/08/11 13:20:30;;;;;;;5.65;1.85;;;;;;;;;;4965836;28;20035;-77
2022/08/11 13:22:58;;;;;;;6.50;2.35;;;;;;;;;;4952715;28;20130;-78
2022/08/11 13:25:27;;;;;;;9.10;2.22;;;;;;;;;;4951288;28;20035;-77
2022/08/11 13:27:56;;;;;;;5.38;1.88;;;;;;;;;;4961183;28;20114;-79
2022/08/11 13:33:10;;;;;;;6.20;2.17;;;;;;;;;;4949856;28;20400;-77
2022/08/11 13:35:37;;;;;;;4.78;2.80;;;;;;;;;;4966559;28;20062;-76
2022/08/11 13:38:04;;;;;;;3.65;2.10;;;;;;;;;;4955760;28;20403;-79
2022/08/11 13:40:31;;;;;;;4.43;1.88;;;;;;;;;;4951014;28;20038;-77
2022/08/11 13:42:58;;;;;;;3.10;1.92;;;;;;;;;;4950918;28;20038;-75
2022/08/11 13:45:25;;;;;;;6.95;2.10;;;;;;;;;;4960950;28;20138;-76
2022/08/11 13:47:57;;;;;;;7.55;2.33;;;;;;;;;;4956651;28;20035;-77
2022/08/11 13:51:29;;;;;;;4.47;2.08;;;;;;;;;;4956606;28;20118;-78
2022/08/11 13:53:16;;;;;;;5.00;1.77;;;;;;;;;;4958088;28;20190;-78
2022/08/11 13:55:42;;;;;;;7.15;1.77;;;;;;;;;;4966445;28;20030;-77
2022/08/11 13:58:10;;;;;;;3.58;1.85;;;;;;;;;;4974400;28;20380;-77
2022/08/11 14:00:37;;;;;;;11.80;2.50;;;;;;;;;;4976763;28;20103;-77
2022/08/11 14:03:07;;;;;;;3.03;1.70;;;;;;;;;;4962145;28;20101;-78
2022/08/11 14:05:42;;;;;;;2.25;1.55;;;;;;;;;;4977559;28;20037;-79
2022/08/11 14:08:11;;;;;;;3.10;1.88;;;;;;;;;;4975021;28;20097;-77
2022/08/11 14:10:38;;;;;;;4.25;2.10;;;;;;;;;;4956092;28;20086;-77
2022/08/11 14:16:03;;;;;;;3.30;1.75;;;;;;;;;;4959388;28;20408;-77
2022/08/11 14:18:32;;;;;;;6.05;2.30;;;;;;;;;;4975775;28;20038;-78
2022/08/11 14:23:52;;;;;;;3.17;1.40;;;;;;;;;;4954904;28;20190;-77
2022/08/11 14:26:22;;;;;;;1.80;1.70;;;;;;;;;;4964446;28;20041;-77
2022/08/11 14:28:49;;;;;;;4.97;1.58;;;;;;;;;;4961651;28;20074;-76
2022/08/11 14:31:15;;;;;;;4.10;1.60;;;;;;;;;;4956887;28;20085;-77
2022/08/11 14:33:44;;;;;;;4.40;1.75;;;;;;;;;;4981711;28;20054;-76
2022/08/11 14:36:10;;;;;;;3.50;1.50;;;;;;;;;;4981131;28;20037;-77
2022/08/11 14:38:38;;;;;;;4.65;1.58;;;;;;;;;;4972097;28;20027;-78
2022/08/11 14:49:24;;;;;;;2.20;1.63;;;;;;;;;;4959561;28;19921;-77
2022/08/11 14:51:53;;;;;;;7.97;2.70;;;;;;;;;;4959580;28;20031;-77
2022/08/11 14:57:10;;;;;;;13.02;1.50;;;;;;;;;;4960241;28;20533;-76
2022/08/11 14:59:37;;;;;;;4.10;1.52;;;;;;;;;;4960857;28;20089;-78
2022/08/11 15:04:54;;;;;;;3.63;1.50;;;;;;;;;;4962116;28;20130;-76
2022/08/11 15:07:28;;;;;;;3.15;1.38;;;;;;;;;;4961834;28;20034;-78
2022/08/11 15:09:55;;;;;;;2.72;1.42;;;;;;;;;;4955726;28;20106;-79
2022/08/11 15:12:21;;;;;;;2.40;1.60;;;;;;;;;;4956310;28;20443;-77
2022/08/11 15:17:33;;;;;;;2.25;1.80;;;;;;;;;;4955920;28;20054;-76
2022/08/11 15:25:36;;;;;;;2.38;1.63;;;;;;;;;;4959541;28;20154;-77
2022/08/11 15:39:17;;;;;;;6.22;2.10;;;;;;;;;;4968559;28;20050;-77
2022/08/11 15:47:56;;;;;;;2.47;1.83;;;;;;;;;;4962889;28;20101;-76
2022/08/11 15:50:28;;;;;;;2.55;1.73;;;;;;;;;;4985465;28;20054;-78
2022/08/11 15:53:02;;;;;;;5.95;1.90;;;;;;;;;;4980578;28;20093;-77
2022/08/11 15:55:29;;;;;;;3.47;1.92;;;;;;;;;;4984882;28;20555;-76
2022/08/11 16:06:24;;;;;;;5.00;1.92;;;;;;;;;;4954782;28;20097;-76
2022/08/11 16:08:55;;;;;;;7.95;1.75;;;;;;;;;;4976977;28;20023;-78
2022/08/11 16:11:21;;;;;;;3.17;1.98;;;;;;;;;;4969009;28;20056;-78
2022/08/11 16:16:33;;;;;;;5.22;2.70;;;;;;;;;;4962351;28;20064;-75
2022/08/11 16:19:02;;;;;;;6.38;2.45;;;;;;;;;;4955670;28;20051;-78
2022/08/11 16:21:38;;;;;;;5.22;1.88;;;;;;;;;;4976852;28;20031;-77
2022/08/11 16:24:11;;;;;;;6.32;2.40;;;;;;;;;;4977796;28;20057;-76
2022/08/11 16:26:40;;;;;;;11.63;4.03;;;;;;;;;;4984613;28;20094;-77
2022/08/11 16:29:07;;;;;;;3.55;2.20;;;;;;;;;;4965602;28;20031;-77
2022/08/11 16:31:35;;;;;;;7.55;3.35;;;;;;;;;;4975746;28;20043;-76
2022/08/11 16:34:04;;;;;;;5.88;2.58;;;;;;;;;;4961287;28;20018;-76
2022/08/11 16:39:18;;;;;;;3.78;2.08;;;;;;;;;;4970121;28;20451;-77
2022/08/11 16:47:18;;;;;;;2.85;2.10;;;;;;;;;;4972648;28;20065;-77
2022/08/11 16:49:50;;;;;;;7.13;2.50;;;;;;;;;;4976281;28;20035;-76
2022/08/11 16:52:17;;;;;;;6.20;2.22;;;;;;;;;;4974617;28;20027;-77
2022/08/11 16:54:43;;;;;;;12.68;3.35;;;;;;;;;;4989581;28;20042;-77
2022/08/11 17:00:03;;;;;;;7.30;3.00;;;;;;;;;;4962911;28;20065;-77
2022/08/11 17:13:51;;;;;;;5.35;2.53;;;;;;;;;;4962835;28;20487;-77
2022/08/11 17:16:26;;;;;;;3.47;2.08;;;;;;;;;;4969372;28;20053;-79
2022/08/11 17:19:01;;;;;;;3.53;1.83;;;;;;;;;;4982120;28;20110;-77
2022/08/11 17:21:34;;;;;;;4.63;2.42;;;;;;;;;;4963522;28;20109;-76
2022/08/11 17:24:03;;;;;;;7.50;3.38;;;;;;;;;;4961012;28;20058;-76
2022/08/11 17:26:57;;;;;;;8.25;2.95;;;;;;;;;;4951484;28;20041;-75
2022/08/11 17:29:31;;;;;;;5.63;2.55;;;;;;;;;;4961237;28;20023;-77
2022/08/11 17:37:32;;;;;;;5.80;4.10;;;;;;;;;;4961177;28;20093;-77
2022/08/11 17:40:01;;;;;;;3.22;2.20;;;;;;;;;;4957095;28;20031;-77
2022/08/11 17:50:48;;;;;;;4.72;2.67;;;;;;;;;;4960400;28;20106;-77
2022/08/11 18:01:48;;;;;;;5.05;2.28;;;;;;;;;;4962414;28;20100;-76
2022/08/11 18:04:15;;;;;;;2.90;2.20;;;;;;;;;;4957845;28;20058;-76
2022/08/11 18:06:43;;;;;;;3.22;2.15;;;;;;;;;;4956614;28;20035;-77
